sensor_id;sensor_type;location;lat;lon;timestamp;P1;durP1;ratioP1;P2;durP2;ratioP2
56746;SDS011;42623;49.978;9.966;2022-11-15T00:00:04;7.97;;;4.60;;
56746;SDS011;42623;49.978;9.966;2022-11-15T00:00:15;7.13;;;4.45;;
56746;SDS011;42623;49.978;9.966;2022-11-15T00:00:25;7.10;;;4.53;;
56746;SDS011;42623;49.978;9.966;2022-11-15T00:00:35;7.53;;;4.63;;
56746;SDS011;42623;49.978;9.966;2022-11-15T00:00:46;9.40;;;4.78;;
56746;SDS011;42623;49.978;9.966;2022-11-15T00:00:56;9.97;;;4.50;;
56746;SDS011;42623;49.978;9.966;2022-11-15T00:01:10;9.47;;;4.33;;
56746;SDS011;42623;49.978;9.966;2022-11-15T00:01:23;8.20;;;4.85;;
56746;SDS011;42623;49.978;9.966;2022-11-15T00:01:34;8.13;;;4.50;;
56746;SDS011;42623;49.978;9.966;2022-11-15T00:01:44;8.97;;;4.80;;
56746;SDS011;42623;49.978;9.966;2022-11-15T00:01:54;8.05;;;4.13;;
56746;SDS011;42623;49.978;9.966;2022-11-15T00:02:04;9.10;;;4.40;;
56746;SDS011;42623;49.978;9.966;2022-11-15T00:02:14;8.00;;;4.10;;
56746;SDS011;42623;49.978;9.966;2022-11-15T00:02:25;8.20;;;4.20;;
56746;SDS011;42623;49.978;9.966;2022-11-15T00:02:36;8.55;;;4.40;;
56746;SDS011;42623;49.978;9.966;2022-11-15T00:02:46;9.07;;;4.47;;
56746;SDS011;42623;49.978;9.966;2022-11-15T00:02:56;8.90;;;4.50;;
56746;SDS011;42623;49.978;9.966;2022-11-15T00:03:06;8.13;;;4.43;;
56746;SDS011;42623;49.978;9.966;2022-11-15T00:03:17;8.60;;;4.63;;
56746;SDS011;42623;49.978;9.966;2022-11-15T00:03:27;8.02;;;4.50;;
56746;SDS011;42623;49.978;9.966;2022-11-15T00:03:37;7.40;;;4.00;;
56746;SDS011;42623;49.978;9.966;2022-11-15T00:03:50;7.05;;;3.80;;
56746;SDS011;42623;49.978;9.966;2022-11-15T00:04:00;7.50;;;4.13;;
56746;SDS011;42623;49.978;9.966;2022-11-15T00:04:10;7.38;;;4.10;;
56746;SDS011;42623;49.978;9.966;2022-11-15T00:04:21;7.27;;;4.33;;
56746;SDS011;42623;49.978;9.966;2022-11-15T00:25:09;2.28;;;1.80;;
56746;SDS011;42623;49.978;9.966;2022-11-15T00:25:19;4.47;;;3.47;;
56746;SDS011;42623;49.978;9.966;2022-11-15T00:25:29;4.80;;;3.50;;
56746;SDS011;42623;49.978;9.966;2022-11-15T00:25:39;5.57;;;3.83;;
56746;SDS011;42623;49.978;9.966;2022-11-15T00:25:55;5.97;;;3.77;;
56746;SDS011;42623;49.978;9.966;2022-11-15T00:26:06;6.53;;;4.43;;
56746;SDS011;42623;49.978;9.966;2022-11-15T00:26:16;6.40;;;4.35;;
56746;SDS011;42623;49.978;9.966;2022-11-15T00:26:28;7.25;;;4.15;;
56746;SDS011;42623;49.978;9.966;2022-11-15T00:26:38;7.33;;;4.50;;
56746;SDS011;42623;49.978;9.966;2022-11-15T00:26:48;7.70;;;4.70;;
56746;SDS011;42623;49.978;9.966;2022-11-15T00:26:58;7.25;;;4.53;;
56746;SDS011;42623;49.978;9.966;2022-11-15T00:27:08;9.80;;;4.80;;
56746;SDS011;42623;49.978;9.966;2022-11-15T00:27:18;9.90;;;4.70;;
56746;SDS011;42623;49.978;9.966;2022-11-15T00:27:28;10.70;;;4.57;;
56746;SDS011;42623;49.978;9.966;2022-11-15T00:27:39;8.67;;;4.40;;
56746;SDS011;42623;49.978;9.966;2022-11-15T00:27:49;8.23;;;4.23;;
56746;SDS011;42623;49.978;9.966;2022-11-15T00:27:59;7.37;;;4.70;;
56746;SDS011;42623;49.978;9.966;2022-11-15T00:28:10;6.93;;;4.47;;
56746;SDS011;42623;49.978;9.966;2022-11-15T00:28:20;7.27;;;4.37;;
56746;SDS011;42623;49.978;9.966;2022-11-15T00:28:30;7.77;;;4.33;;
56746;SDS011;42623;49.978;9.966;2022-11-15T00:28:41;7.70;;;4.40;;
56746;SDS011;42623;49.978;9.966;2022-11-15T00:28:52;7.57;;;4.38;;
56746;SDS011;42623;49.978;9.966;2022-11-15T00:29:02;7.15;;;4.05;;
56746;SDS011;42623;49.978;9.966;2022-11-15T00:29:12;7.47;;;4.33;;
56746;SDS011;42623;49.978;9.966;2022-11-15T00:29:23;7.30;;;4.25;;
56746;SDS011;42623;49.978;9.966;2022-11-15T00:29:33;8.77;;;4.83;;
56746;SDS011;42623;49.978;9.966;2022-11-15T00:29:43;9.23;;;5.00;;
56746;SDS011;42623;49.978;9.966;2022-11-15T00:29:59;9.50;;;5.53;;
56746;SDS011;42623;49.978;9.966;2022-11-15T00:30:09;7.90;;;5.05;;
56746;SDS011;42623;49.978;9.966;2022-11-15T00:30:24;9.47;;;5.30;;
56746;SDS011;42623;49.978;9.966;2022-11-15T00:30:34;10.25;;;5.32;;
56746;SDS011;42623;49.978;9.966;2022-11-15T00:30:49;10.23;;;5.03;;
56746;SDS011;42623;49.978;9.966;2022-11-15T00:31:00;7.78;;;4.40;;
56746;SDS011;42623;49.978;9.966;2022-11-15T00:31:14;7.03;;;4.43;;
56746;SDS011;42623;49.978;9.966;2022-11-15T00:31:24;7.75;;;4.35;;
56746;SDS011;42623;49.978;9.966;2022-11-15T00:31:34;6.87;;;3.67;;
56746;SDS011;42623;49.978;9.966;2022-11-15T00:31:44;6.63;;;3.70;;
56746;SDS011;42623;49.978;9.966;2022-11-15T00:31:54;6.87;;;4.03;;
56746;SDS011;42623;49.978;9.966;2022-11-15T00:32:04;8.33;;;4.73;;
56746;SDS011;42623;49.978;9.966;2022-11-15T00:32:15;8.27;;;4.65;;
56746;SDS011;42623;49.978;9.966;2022-11-15T00:32:25;8.03;;;4.47;;
56746;SDS011;42623;49.978;9.966;2022-11-15T00:32:35;7.77;;;4.27;;
56746;SDS011;42623;49.978;9.966;2022-11-15T00:32:45;7.80;;;4.23;;
56746;SDS011;42623;49.978;9.966;2022-11-15T00:32:55;7.53;;;4.13;;
56746;SDS011;42623;49.978;9.966;2022-11-15T00:33:05;7.37;;;4.07;;
56746;SDS011;42623;49.978;9.966;2022-11-15T00:33:16;8.35;;;4.50;;
56746;SDS011;42623;49.978;9.966;2022-11-15T00:33:26;9.37;;;4.90;;
56746;SDS011;42623;49.978;9.966;2022-11-15T00:33:36;9.23;;;4.60;;
56746;SDS011;42623;49.978;9.966;2022-11-15T00:33:46;8.43;;;4.30;;
56746;SDS011;42623;49.978;9.966;2022-11-15T00:33:56;8.03;;;3.97;;
56746;SDS011;42623;49.978;9.966;2022-11-15T00:34:06;7.50;;;4.10;;
56746;SDS011;42623;49.978;9.966;2022-11-15T00:34:16;7.37;;;4.20;;
56746;SDS011;42623;49.978;9.966;2022-11-15T00:34:27;7.50;;;4.60;;
56746;SDS011;42623;49.978;9.966;2022-11-15T00:34:37;7.93;;;4.50;;
56746;SDS011;42623;49.978;9.966;2022-11-15T00:34:47;8.43;;;4.57;;
56746;SDS011;42623;49.978;9.966;2022-11-15T00:34:57;8.80;;;4.30;;
56746;SDS011;42623;49.978;9.966;2022-11-15T00:35:08;9.97;;;4.63;;
56746;SDS011;42623;49.978;9.966;2022-11-15T00:35:18;8.80;;;4.05;;
56746;SDS011;42623;49.978;9.966;2022-11-15T00:35:30;8.30;;;4.33;;
56746;SDS011;42623;49.978;9.966;2022-11-15T00:35:40;7.80;;;4.63;;
56746;SDS011;42623;49.978;9.966;2022-11-15T00:35:51;8.00;;;4.70;;
56746;SDS011;42623;49.978;9.966;2022-11-15T00:36:05;7.07;;;4.13;;
56746;SDS011;42623;49.978;9.966;2022-11-15T00:36:15;6.82;;;4.10;;
56746;SDS011;42623;49.978;9.966;2022-11-15T00:36:26;7.23;;;4.30;;
56746;SDS011;42623;49.978;9.966;2022-11-15T00:36:36;7.23;;;4.27;;
56746;SDS011;42623;49.978;9.966;2022-11-15T00:36:46;7.63;;;4.13;;
56746;SDS011;42623;49.978;9.966;2022-11-15T00:36:56;7.53;;;4.03;;
56746;SDS011;42623;49.978;9.966;2022-11-15T00:37:06;8.52;;;4.15;;
56746;SDS011;42623;49.978;9.966;2022-11-15T00:37:16;8.20;;;4.43;;
56746;SDS011;42623;49.978;9.966;2022-11-15T00:37:27;8.07;;;4.57;;
56746;SDS011;42623;49.978;9.966;2022-11-15T00:37:37;8.27;;;4.63;;
56746;SDS011;42623;49.978;9.966;2022-11-15T00:37:47;8.30;;;4.67;;
56746;SDS011;42623;49.978;9.966;2022-11-15T00:37:57;8.55;;;4.88;;
56746;SDS011;42623;49.978;9.966;2022-11-15T00:38:07;7.77;;;5.07;;
56746;SDS011;42623;49.978;9.966;2022-11-15T00:38:18;7.73;;;5.27;;
56746;SDS011;42623;49.978;9.966;2022-11-15T00:38:31;7.40;;;4.90;;
56746;SDS011;42623;49.978;9.966;2022-11-15T00:38:42;7.80;;;4.85;;
56746;SDS011;42623;49.978;9.966;2022-11-15T00:38:52;7.77;;;4.80;;
56746;SDS011;42623;49.978;9.966;2022-11-15T00:39:05;7.70;;;4.83;;
56746;SDS011;42623;49.978;9.966;2022-11-15T00:39:18;7.50;;;4.20;;
56746;SDS011;42623;49.978;9.966;2022-11-15T00:39:28;7.07;;;3.70;;
56746;SDS011;42623;49.978;9.966;2022-11-15T00:39:38;7.40;;;3.97;;
56746;SDS011;42623;49.978;9.966;2022-11-15T00:39:48;7.47;;;3.93;;
56746;SDS011;42623;49.978;9.966;2022-11-15T00:39:58;8.52;;;4.20;;
56746;SDS011;42623;49.978;9.966;2022-11-15T00:40:09;9.30;;;4.07;;
56746;SDS011;42623;49.978;9.966;2022-11-15T00:40:19;9.37;;;4.30;;
56746;SDS011;42623;49.978;9.966;2022-11-15T00:40:29;8.45;;;4.13;;
56746;SDS011;42623;49.978;9.966;2022-11-15T00:40:40;7.20;;;4.40;;
56746;SDS011;42623;49.978;9.966;2022-11-15T00:40:50;6.60;;;4.13;;
56746;SDS011;42623;49.978;9.966;2022-11-15T00:41:00;8.33;;;4.47;;
56746;SDS011;42623;49.978;9.966;2022-11-15T00:41:11;8.35;;;4.10;;
56746;SDS011;42623;49.978;9.966;2022-11-15T00:41:21;8.27;;;4.23;;
56746;SDS011;42623;49.978;9.966;2022-11-15T00:41:31;7.65;;;4.10;;
56746;SDS011;42623;49.978;9.966;2022-11-15T00:41:41;7.70;;;4.23;;
56746;SDS011;42623;49.978;9.966;2022-11-15T00:41:51;8.40;;;4.40;;
56746;SDS011;42623;49.978;9.966;2022-11-15T00:42:01;8.13;;;4.20;;
56746;SDS011;42623;49.978;9.966;2022-11-15T00:42:12;7.67;;;4.23;;
56746;SDS011;42623;49.978;9.966;2022-11-15T00:42:22;6.85;;;3.85;;
56746;SDS011;42623;49.978;9.966;2022-11-15T00:42:32;7.10;;;3.90;;
56746;SDS011;42623;49.978;9.966;2022-11-15T00:42:42;7.27;;;3.63;;
56746;SDS011;42623;49.978;9.966;2022-11-15T00:42:53;7.18;;;3.80;;
56746;SDS011;42623;49.978;9.966;2022-11-15T00:43:03;7.20;;;3.80;;
56746;SDS011;42623;49.978;9.966;2022-11-15T00:43:13;7.97;;;4.10;;
56746;SDS011;42623;49.978;9.966;2022-11-15T00:43:23;8.27;;;4.27;;
56746;SDS011;42623;49.978;9.966;2022-11-15T00:43:33;7.63;;;4.13;;
56746;SDS011;42623;49.978;9.966;2022-11-15T00:43:44;6.90;;;3.95;;
56746;SDS011;42623;49.978;9.966;2022-11-15T00:43:54;8.30;;;3.97;;
56746;SDS011;42623;49.978;9.966;2022-11-15T00:44:04;8.00;;;3.85;;
56746;SDS011;42623;49.978;9.966;2022-11-15T00:44:14;7.90;;;3.93;;
56746;SDS011;42623;49.978;9.966;2022-11-15T00:44:25;6.37;;;3.77;;
56746;SDS011;42623;49.978;9.966;2022-11-15T00:44:35;7.07;;;4.20;;
56746;SDS011;42623;49.978;9.966;2022-11-15T00:44:45;6.93;;;3.90;;
56746;SDS011;42623;49.978;9.966;2022-11-15T00:44:55;8.70;;;4.18;;
56746;SDS011;42623;49.978;9.966;2022-11-15T00:45:05;8.57;;;4.43;;
56746;SDS011;42623;49.978;9.966;2022-11-15T00:45:16;9.47;;;4.70;;
56746;SDS011;42623;49.978;9.966;2022-11-15T00:45:26;8.77;;;4.77;;
56746;SDS011;42623;49.978;9.966;2022-11-15T00:45:36;8.48;;;4.25;;
56746;SDS011;42623;49.978;9.966;2022-11-15T00:45:46;7.60;;;4.17;;
56746;SDS011;42623;49.978;9.966;2022-11-15T00:45:56;6.83;;;4.00;;
56746;SDS011;42623;49.978;9.966;2022-11-15T00:46:07;7.00;;;3.95;;
56746;SDS011;42623;49.978;9.966;2022-11-15T00:46:19;7.38;;;4.15;;
56746;SDS011;42623;49.978;9.966;2022-11-15T00:46:29;8.20;;;4.20;;
56746;SDS011;42623;49.978;9.966;2022-11-15T00:46:39;7.93;;;4.07;;
56746;SDS011;42623;49.978;9.966;2022-11-15T00:46:49;7.17;;;3.47;;
56746;SDS011;42623;49.978;9.966;2022-11-15T00:46:59;7.15;;;3.65;;
56746;SDS011;42623;49.978;9.966;2022-11-15T00:47:10;8.60;;;4.00;;
56746;SDS011;42623;49.978;9.966;2022-11-15T00:47:20;9.03;;;4.70;;
56746;SDS011;42623;49.978;9.966;2022-11-15T00:47:30;8.53;;;4.53;;
56746;SDS011;42623;49.978;9.966;2022-11-15T00:47:40;7.90;;;4.47;;
56746;SDS011;42623;49.978;9.966;2022-11-15T00:47:50;7.85;;;4.25;;
56746;SDS011;42623;49.978;9.966;2022-11-15T00:48:01;7.63;;;4.47;;
56746;SDS011;42623;49.978;9.966;2022-11-15T00:48:11;7.20;;;4.57;;
56746;SDS011;42623;49.978;9.966;2022-11-15T00:48:21;8.07;;;4.73;;
56746;SDS011;42623;49.978;9.966;2022-11-15T00:48:31;8.02;;;4.38;;
56746;SDS011;42623;49.978;9.966;2022-11-15T00:48:41;8.47;;;4.30;;
56746;SDS011;42623;49.978;9.966;2022-11-15T00:48:51;9.10;;;4.03;;
56746;SDS011;42623;49.978;9.966;2022-11-15T00:49:02;8.67;;;3.87;;
56746;SDS011;42623;49.978;9.966;2022-11-15T00:49:12;8.75;;;3.83;;
56746;SDS011;42623;49.978;9.966;2022-11-15T00:49:22;8.27;;;4.00;;
56746;SDS011;42623;49.978;9.966;2022-11-15T00:49:32;8.97;;;3.93;;
56746;SDS011;42623;49.978;9.966;2022-11-15T00:49:42;9.03;;;3.83;;
56746;SDS011;42623;49.978;9.966;2022-11-15T00:49:52;8.27;;;3.70;;
56746;SDS011;42623;49.978;9.966;2022-11-15T00:50:03;8.10;;;3.78;;
56746;SDS011;42623;49.978;9.966;2022-11-15T00:50:14;7.70;;;3.77;;
56746;SDS011;42623;49.978;9.966;2022-11-15T00:50:24;6.93;;;3.70;;
56746;SDS011;42623;49.978;9.966;2022-11-15T00:50:34;6.83;;;3.73;;
56746;SDS011;42623;49.978;9.966;2022-11-15T00:50:44;7.27;;;3.93;;
56746;SDS011;42623;49.978;9.966;2022-11-15T00:50:54;8.37;;;4.37;;
56746;SDS011;42623;49.978;9.966;2022-11-15T00:51:04;12.75;;;4.90;;
56746;SDS011;42623;49.978;9.966;2022-11-15T00:51:15;12.43;;;4.90;;
56746;SDS011;42623;49.978;9.966;2022-11-15T00:51:25;10.47;;;4.47;;
56746;SDS011;42623;49.978;9.966;2022-11-15T00:51:35;7.93;;;4.23;;
56746;SDS011;42623;49.978;9.966;2022-11-15T00:51:45;7.80;;;4.03;;
56746;SDS011;42623;49.978;9.966;2022-11-15T00:51:55;8.13;;;3.80;;
56746;SDS011;42623;49.978;9.966;2022-11-15T00:52:05;8.13;;;3.73;;
56746;SDS011;42623;49.978;9.966;2022-11-15T00:52:16;9.13;;;4.30;;
56746;SDS011;42623;49.978;9.966;2022-11-15T00:52:26;8.07;;;4.33;;
56746;SDS011;42623;49.978;9.966;2022-11-15T00:52:36;7.77;;;4.43;;
56746;SDS011;42623;49.978;9.966;2022-11-15T00:52:46;6.10;;;3.63;;
56746;SDS011;42623;49.978;9.966;2022-11-15T00:52:56;7.83;;;3.90;;
56746;SDS011;42623;49.978;9.966;2022-11-15T00:53:06;8.60;;;3.87;;
56746;SDS011;42623;49.978;9.966;2022-11-15T00:53:16;10.23;;;4.40;;
56746;SDS011;42623;49.978;9.966;2022-11-15T00:53:27;8.60;;;4.07;;
56746;SDS011;42623;49.978;9.966;2022-11-15T00:53:37;8.73;;;4.53;;
56746;SDS011;42623;49.978;9.966;2022-11-15T00:53:47;8.70;;;4.30;;
56746;SDS011;42623;49.978;9.966;2022-11-15T00:53:57;9.90;;;4.43;;
56746;SDS011;42623;49.978;9.966;2022-11-15T00:54:08;9.20;;;4.07;;
56746;SDS011;42623;49.978;9.966;2022-11-15T00:54:18;8.33;;;4.13;;
56746;SDS011;42623;49.978;9.966;2022-11-15T00:54:28;7.70;;;4.33;;
56746;SDS011;42623;49.978;9.966;2022-11-15T00:54:38;8.87;;;4.53;;
56746;SDS011;42623;49.978;9.966;2022-11-15T00:54:49;8.60;;;4.40;;
56746;SDS011;42623;49.978;9.966;2022-11-15T00:54:59;7.87;;;4.10;;
56746;SDS011;42623;49.978;9.966;2022-11-15T00:55:13;6.90;;;3.78;;
56746;SDS011;42623;49.978;9.966;2022-11-15T00:55:24;8.30;;;4.15;;
56746;SDS011;42623;49.978;9.966;2022-11-15T00:55:34;7.63;;;3.60;;
56746;SDS011;42623;49.978;9.966;2022-11-15T00:55:44;6.43;;;3.30;;
56746;SDS011;42623;49.978;9.966;2022-11-15T00:55:56;6.57;;;3.53;;
56746;SDS011;42623;49.978;9.966;2022-11-15T00:56:06;6.73;;;3.83;;
56746;SDS011;42623;49.978;9.966;2022-11-15T00:56:16;6.70;;;3.88;;
56746;SDS011;42623;49.978;9.966;2022-11-15T00:56:26;7.00;;;4.03;;
56746;SDS011;42623;49.978;9.966;2022-11-15T00:56:36;7.63;;;4.30;;
56746;SDS011;42623;49.978;9.966;2022-11-15T00:56:46;8.10;;;4.30;;
56746;SDS011;42623;49.978;9.966;2022-11-15T00:56:56;8.00;;;4.30;;
56746;SDS011;42623;49.978;9.966;2022-11-15T00:57:07;7.40;;;4.03;;
56746;SDS011;42623;49.978;9.966;2022-11-15T00:57:17;6.83;;;3.90;;
56746;SDS011;42623;49.978;9.966;2022-11-15T00:57:27;7.47;;;4.13;;
56746;SDS011;42623;49.978;9.966;2022-11-15T00:57:37;8.17;;;4.57;;
56746;SDS011;42623;49.978;9.966;2022-11-15T00:57:47;9.33;;;5.20;;
56746;SDS011;42623;49.978;9.966;2022-11-15T00:57:57;9.05;;;4.95;;
56746;SDS011;42623;49.978;9.966;2022-11-15T00:58:08;9.10;;;4.80;;
56746;SDS011;42623;49.978;9.966;2022-11-15T00:58:18;8.17;;;4.40;;
56746;SDS011;42623;49.978;9.966;2022-11-15T00:58:28;7.50;;;4.07;;
56746;SDS011;42623;49.978;9.966;2022-11-15T00:58:38;7.15;;;4.03;;
56746;SDS011;42623;49.978;9.966;2022-11-15T00:58:48;7.23;;;4.40;;
56746;SDS011;42623;49.978;9.966;2022-11-15T00:58:59;7.27;;;4.33;;
56746;SDS011;42623;49.978;9.966;2022-11-15T00:59:09;6.93;;;4.27;;
56746;SDS011;42623;49.978;9.966;2022-11-15T00:59:19;7.00;;;3.87;;
56746;SDS011;42623;49.978;9.966;2022-11-15T00:59:29;7.20;;;4.07;;
56746;SDS011;42623;49.978;9.966;2022-11-15T00:59:39;7.97;;;4.37;;
56746;SDS011;42623;49.978;9.966;2022-11-15T00:59:49;7.87;;;4.83;;
56746;SDS011;42623;49.978;9.966;2022-11-15T01:00:00;8.23;;;5.03;;
56746;SDS011;42623;49.978;9.966;2022-11-15T01:00:10;7.67;;;4.93;;
56746;SDS011;42623;49.978;9.966;2022-11-15T01:00:20;7.50;;;4.47;;
56746;SDS011;42623;49.978;9.966;2022-11-15T01:00:30;7.60;;;3.77;;
56746;SDS011;42623;49.978;9.966;2022-11-15T01:00:41;7.40;;;3.43;;
56746;SDS011;42623;49.978;9.966;2022-11-15T01:00:51;6.50;;;3.43;;
56746;SDS011;42623;49.978;9.966;2022-11-15T01:01:11;6.07;;;3.80;;
56746;SDS011;42623;49.978;9.966;2022-11-15T01:01:21;6.50;;;3.92;;
56746;SDS011;42623;49.978;9.966;2022-11-15T01:01:31;6.80;;;3.90;;
56746;SDS011;42623;49.978;9.966;2022-11-15T01:01:42;7.03;;;3.87;;
56746;SDS011;42623;49.978;9.966;2022-11-15T01:01:52;7.77;;;4.00;;
56746;SDS011;42623;49.978;9.966;2022-11-15T01:02:02;7.93;;;4.43;;
56746;SDS011;42623;49.978;9.966;2022-11-15T01:02:12;7.70;;;4.60;;
56746;SDS011;42623;49.978;9.966;2022-11-15T01:02:22;7.45;;;4.80;;
56746;SDS011;42623;49.978;9.966;2022-11-15T01:02:32;7.13;;;4.33;;
56746;SDS011;42623;49.978;9.966;2022-11-15T01:02:43;7.80;;;4.60;;
56746;SDS011;42623;49.978;9.966;2022-11-15T01:02:53;7.83;;;4.07;;
56746;SDS011;42623;49.978;9.966;2022-11-15T01:03:03;7.47;;;3.77;;
56746;SDS011;42623;49.978;9.966;2022-11-15T01:03:13;7.63;;;3.63;;
56746;SDS011;42623;49.978;9.966;2022-11-15T01:03:23;7.00;;;3.67;;
56746;SDS011;42623;49.978;9.966;2022-11-15T01:03:34;8.23;;;4.23;;
56746;SDS011;42623;49.978;9.966;2022-11-15T01:03:44;7.78;;;4.15;;
56746;SDS011;42623;49.978;9.966;2022-11-15T01:03:54;8.43;;;4.60;;
56746;SDS011;42623;49.978;9.966;2022-11-15T01:04:04;7.67;;;4.53;;
56746;SDS011;42623;49.978;9.966;2022-11-15T01:04:14;7.30;;;4.33;;
56746;SDS011;42623;49.978;9.966;2022-11-15T01:04:25;7.23;;;4.33;;
56746;SDS011;42623;49.978;9.966;2022-11-15T01:04:35;7.00;;;4.03;;
56746;SDS011;42623;49.978;9.966;2022-11-15T01:04:45;7.00;;;4.13;;
56746;SDS011;42623;49.978;9.966;2022-11-15T01:04:55;7.37;;;4.17;;
56746;SDS011;42623;49.978;9.966;2022-11-15T01:05:05;8.00;;;4.33;;
56746;SDS011;42623;49.978;9.966;2022-11-15T01:05:16;9.10;;;4.38;;
56746;SDS011;42623;49.978;9.966;2022-11-15T01:05:26;9.80;;;4.47;;
56746;SDS011;42623;49.978;9.966;2022-11-15T01:05:37;9.35;;;4.35;;
56746;SDS011;42623;49.978;9.966;2022-11-15T01:05:47;7.50;;;3.87;;
56746;SDS011;42623;49.978;9.966;2022-11-15T01:05:58;6.20;;;3.47;;
56746;SDS011;42623;49.978;9.966;2022-11-15T01:06:09;7.43;;;4.15;;
56746;SDS011;42623;49.978;9.966;2022-11-15T01:06:19;12.13;;;7.45;;
56746;SDS011;42623;49.978;9.966;2022-11-15T01:06:29;14.40;;;9.97;;
56746;SDS011;42623;49.978;9.966;2022-11-15T01:06:39;14.57;;;10.30;;
56746;SDS011;42623;49.978;9.966;2022-11-15T01:06:50;10.87;;;7.77;;
56746;SDS011;42623;49.978;9.966;2022-11-15T01:07:00;9.10;;;5.77;;
56746;SDS011;42623;49.978;9.966;2022-11-15T01:07:10;10.60;;;5.70;;
56746;SDS011;42623;49.978;9.966;2022-11-15T01:07:20;10.93;;;5.47;;
56746;SDS011;42623;49.978;9.966;2022-11-15T01:07:31;10.80;;;5.57;;
56746;SDS011;42623;49.978;9.966;2022-11-15T01:07:41;8.60;;;5.38;;
56746;SDS011;42623;49.978;9.966;2022-11-15T01:07:54;9.37;;;5.37;;
56746;SDS011;42623;49.978;9.966;2022-11-15T01:08:05;11.18;;;6.32;;
56746;SDS011;42623;49.978;9.966;2022-11-15T01:08:15;15.43;;;9.80;;
56746;SDS011;42623;49.978;9.966;2022-11-15T01:08:25;21.87;;;13.23;;
56746;SDS011;42623;49.978;9.966;2022-11-15T01:08:36;26.15;;;15.63;;
56746;SDS011;42623;49.978;9.966;2022-11-15T01:08:46;25.83;;;15.20;;
56746;SDS011;42623;49.978;9.966;2022-11-15T01:08:56;24.43;;;14.53;;
56746;SDS011;42623;49.978;9.966;2022-11-15T01:09:06;27.90;;;14.63;;
56746;SDS011;42623;49.978;9.966;2022-11-15T01:09:16;22.50;;;11.33;;
56746;SDS011;42623;49.978;9.966;2022-11-15T01:09:26;17.48;;;8.48;;
56746;SDS011;42623;49.978;9.966;2022-11-15T01:09:36;11.00;;;6.60;;
56746;SDS011;42623;49.978;9.966;2022-11-15T01:09:47;12.07;;;7.17;;
56746;SDS011;42623;49.978;9.966;2022-11-15T01:09:57;12.47;;;7.70;;
56746;SDS011;42623;49.978;9.966;2022-11-15T01:10:07;14.40;;;8.80;;
56746;SDS011;42623;49.978;9.966;2022-11-15T01:10:17;17.92;;;9.85;;
56746;SDS011;42623;49.978;9.966;2022-11-15T01:10:28;19.53;;;10.37;;
56746;SDS011;42623;49.978;9.966;2022-11-15T01:10:38;20.53;;;10.80;;
56746;SDS011;42623;49.978;9.966;2022-11-15T01:10:48;18.42;;;10.98;;
56746;SDS011;42623;49.978;9.966;2022-11-15T01:11:02;15.73;;;10.10;;
56746;SDS011;42623;49.978;9.966;2022-11-15T01:11:12;15.15;;;8.60;;
56746;SDS011;42623;49.978;9.966;2022-11-15T01:11:22;14.53;;;7.87;;
56746;SDS011;42623;49.978;9.966;2022-11-15T01:11:33;14.97;;;8.30;;
56746;SDS011;42623;49.978;9.966;2022-11-15T01:11:43;12.32;;;7.53;;
56746;SDS011;42623;49.978;9.966;2022-11-15T01:11:53;11.63;;;7.67;;
56746;SDS011;42623;49.978;9.966;2022-11-15T01:12:03;11.50;;;6.97;;
56746;SDS011;42623;49.978;9.966;2022-11-15T01:12:13;12.43;;;7.27;;
56746;SDS011;42623;49.978;9.966;2022-11-15T01:12:24;13.90;;;7.40;;
56746;SDS011;42623;49.978;9.966;2022-11-15T01:12:34;15.93;;;8.77;;
56746;SDS011;42623;49.978;9.966;2022-11-15T01:12:44;17.87;;;8.57;;
56746;SDS011;42623;49.978;9.966;2022-11-15T01:12:54;17.13;;;8.13;;
56746;SDS011;42623;49.978;9.966;2022-11-15T01:13:04;17.17;;;8.63;;
56746;SDS011;42623;49.978;9.966;2022-11-15T01:13:14;15.20;;;9.30;;
56746;SDS011;42623;49.978;9.966;2022-11-15T01:13:24;14.13;;;8.83;;
56746;SDS011;42623;49.978;9.966;2022-11-15T01:13:36;11.83;;;7.20;;
56746;SDS011;42623;49.978;9.966;2022-11-15T01:13:47;10.23;;;6.65;;
56746;SDS011;42623;49.978;9.966;2022-11-15T01:13:57;11.43;;;7.43;;
56746;SDS011;42623;49.978;9.966;2022-11-15T01:14:07;11.83;;;7.80;;
56746;SDS011;42623;49.978;9.966;2022-11-15T01:14:17;11.57;;;6.80;;
56746;SDS011;42623;49.978;9.966;2022-11-15T01:14:27;11.47;;;6.17;;
56746;SDS011;42623;49.978;9.966;2022-11-15T01:14:37;12.67;;;6.07;;
56746;SDS011;42623;49.978;9.966;2022-11-15T01:14:49;12.60;;;6.27;;
56746;SDS011;42623;49.978;9.966;2022-11-15T01:14:59;11.70;;;6.43;;
56746;SDS011;42623;49.978;9.966;2022-11-15T01:15:09;10.00;;;6.63;;
56746;SDS011;42623;49.978;9.966;2022-11-15T01:15:19;10.27;;;6.23;;
56746;SDS011;42623;49.978;9.966;2022-11-15T01:15:29;9.60;;;5.73;;
56746;SDS011;42623;49.978;9.966;2022-11-15T01:15:40;9.70;;;5.22;;
56746;SDS011;42623;49.978;9.966;2022-11-15T01:15:50;8.63;;;4.83;;
56746;SDS011;42623;49.978;9.966;2022-11-15T01:16:11;7.57;;;4.47;;
56746;SDS011;42623;49.978;9.966;2022-11-15T01:16:21;9.63;;;5.07;;
56746;SDS011;42623;49.978;9.966;2022-11-15T01:16:32;11.03;;;5.37;;
56746;SDS011;42623;49.978;9.966;2022-11-15T01:16:43;11.45;;;5.53;;
56746;SDS011;42623;49.978;9.966;2022-11-15T01:16:53;8.83;;;5.07;;
56746;SDS011;42623;49.978;9.966;2022-11-15T01:17:03;8.33;;;4.77;;
56746;SDS011;42623;49.978;9.966;2022-11-15T01:17:13;8.45;;;4.80;;
56746;SDS011;42623;49.978;9.966;2022-11-15T01:17:23;8.90;;;5.10;;
56746;SDS011;42623;49.978;9.966;2022-11-15T01:17:34;9.53;;;5.23;;
56746;SDS011;42623;49.978;9.966;2022-11-15T01:17:44;8.73;;;5.07;;
56746;SDS011;42623;49.978;9.966;2022-11-15T01:17:54;9.90;;;5.13;;
56746;SDS011;42623;49.978;9.966;2022-11-15T01:18:04;8.97;;;5.03;;
56746;SDS011;42623;49.978;9.966;2022-11-15T01:18:14;11.83;;;5.50;;
56746;SDS011;42623;49.978;9.966;2022-11-15T01:18:25;10.60;;;5.33;;
56746;SDS011;42623;49.978;9.966;2022-11-15T01:18:35;10.75;;;5.28;;
56746;SDS011;42623;49.978;9.966;2022-11-15T01:18:45;8.47;;;5.00;;
56746;SDS011;42623;49.978;9.966;2022-11-15T01:18:55;9.63;;;5.33;;
56746;SDS011;42623;49.978;9.966;2022-11-15T01:19:05;9.80;;;5.63;;
56746;SDS011;42623;49.978;9.966;2022-11-15T01:19:15;10.30;;;5.88;;
56746;SDS011;42623;49.978;9.966;2022-11-15T01:19:26;9.27;;;5.23;;
56746;SDS011;42623;49.978;9.966;2022-11-15T01:19:36;8.83;;;4.90;;
56746;SDS011;42623;49.978;9.966;2022-11-15T01:19:46;7.43;;;4.30;;
56746;SDS011;42623;49.978;9.966;2022-11-15T01:19:56;7.23;;;4.50;;
56746;SDS011;42623;49.978;9.966;2022-11-15T01:20:07;7.35;;;4.68;;
56746;SDS011;42623;49.978;9.966;2022-11-15T01:20:17;7.13;;;4.73;;
56746;SDS011;42623;49.978;9.966;2022-11-15T01:20:28;7.15;;;4.95;;
56746;SDS011;42623;49.978;9.966;2022-11-15T01:20:39;7.70;;;5.50;;
56746;SDS011;42623;49.978;9.966;2022-11-15T01:20:49;9.63;;;5.95;;
56746;SDS011;42623;49.978;9.966;2022-11-15T01:21:03;10.27;;;5.87;;
56746;SDS011;42623;49.978;9.966;2022-11-15T01:21:15;9.48;;;5.30;;
56746;SDS011;42623;49.978;9.966;2022-11-15T01:21:25;9.55;;;5.68;;
56746;SDS011;42623;49.978;9.966;2022-11-15T01:21:35;10.70;;;5.97;;
56746;SDS011;42623;49.978;9.966;2022-11-15T01:21:48;9.43;;;5.97;;
56746;SDS011;42623;49.978;9.966;2022-11-15T01:21:58;9.77;;;5.72;;
56746;SDS011;42623;49.978;9.966;2022-11-15T01:22:08;9.47;;;5.50;;
56746;SDS011;42623;49.978;9.966;2022-11-15T01:22:18;9.57;;;5.13;;
56746;SDS011;42623;49.978;9.966;2022-11-15T01:22:29;8.90;;;5.00;;
56746;SDS011;42623;49.978;9.966;2022-11-15T01:22:39;9.60;;;5.50;;
56746;SDS011;42623;49.978;9.966;2022-11-15T01:22:49;9.17;;;5.73;;
56746;SDS011;42623;49.978;9.966;2022-11-15T01:22:59;9.37;;;5.90;;
56746;SDS011;42623;49.978;9.966;2022-11-15T01:23:09;9.07;;;5.67;;
56746;SDS011;42623;49.978;9.966;2022-11-15T01:23:20;9.82;;;5.70;;
56746;SDS011;42623;49.978;9.966;2022-11-15T01:23:30;9.37;;;5.67;;
56746;SDS011;42623;49.978;9.966;2022-11-15T01:23:40;9.00;;;5.20;;